sensor_id;sensor_type;location;lat;lon;timestamp;P1;durP1;ratioP1;P2;durP2;ratioP2
12663;SDS011;6396;58.490;15.528;2023-04-24T00:02:28;21.20;;;16.63;;
12663;SDS011;6396;58.490;15.528;2023-04-24T00:04:56;24.47;;;18.63;;
12663;SDS011;6396;58.490;15.528;2023-04-24T00:07:33;23.50;;;18.17;;
12663;SDS011;6396;58.490;15.528;2023-04-24T00:10:00;24.40;;;18.63;;
12663;SDS011;6396;58.490;15.528;2023-04-24T00:12:29;24.37;;;18.00;;
12663;SDS011;6396;58.490;15.528;2023-04-24T00:14:55;23.97;;;17.80;;
12663;SDS011;6396;58.490;15.528;2023-04-24T00:20:11;23.57;;;18.13;;
12663;SDS011;6396;58.490;15.528;2023-04-24T00:22:51;24.57;;;18.20;;
12663;SDS011;6396;58.490;15.528;2023-04-24T00:25:18;25.53;;;19.03;;
12663;SDS011;6396;58.490;15.528;2023-04-24T00:27:51;25.90;;;18.40;;
12663;SDS011;6396;58.490;15.528;2023-04-24T00:30:18;24.23;;;18.93;;
12663;SDS011;6396;58.490;15.528;2023-04-24T00:35:32;26.13;;;20.23;;
12663;SDS011;6396;58.490;15.528;2023-04-24T00:38:13;29.53;;;20.03;;
12663;SDS011;6396;58.490;15.528;2023-04-24T00:40:40;27.87;;;21.67;;
12663;SDS011;6396;58.490;15.528;2023-04-24T00:43:09;30.47;;;21.27;;
12663;SDS011;6396;58.490;15.528;2023-04-24T00:45:35;27.40;;;21.03;;
12663;SDS011;6396;58.490;15.528;2023-04-24T00:54:01;29.17;;;20.97;;
12663;SDS011;6396;58.490;15.528;2023-04-24T00:56:28;27.30;;;21.07;;
12663;SDS011;6396;58.490;15.528;2023-04-24T00:58:55;29.23;;;20.90;;
12663;SDS011;6396;58.490;15.528;2023-04-24T01:01:22;28.43;;;21.43;;
12663;SDS011;6396;58.490;15.528;2023-04-24T01:03:51;26.73;;;20.53;;
12663;SDS011;6396;58.490;15.528;2023-04-24T01:06:27;29.47;;;20.97;;
12663;SDS011;6396;58.490;15.528;2023-04-24T01:08:56;30.47;;;20.87;;
12663;SDS011;6396;58.490;15.528;2023-04-24T01:11:27;29.57;;;21.17;;
12663;SDS011;6396;58.490;15.528;2023-04-24T01:13:56;25.63;;;19.40;;
12663;SDS011;6396;58.490;15.528;2023-04-24T01:16:26;26.73;;;20.43;;
12663;SDS011;6396;58.490;15.528;2023-04-24T01:18:53;25.63;;;19.87;;
12663;SDS011;6396;58.490;15.528;2023-04-24T01:21:27;24.50;;;19.47;;
12663;SDS011;6396;58.490;15.528;2023-04-24T01:23:57;25.97;;;19.37;;
12663;SDS011;6396;58.490;15.528;2023-04-24T01:26:31;26.40;;;19.37;;
12663;SDS011;6396;58.490;15.528;2023-04-24T01:28:58;29.43;;;21.50;;
12663;SDS011;6396;58.490;15.528;2023-04-24T01:31:26;25.67;;;20.70;;
12663;SDS011;6396;58.490;15.528;2023-04-24T01:33:53;29.70;;;22.57;;
12663;SDS011;6396;58.490;15.528;2023-04-24T01:36:32;32.50;;;22.13;;
12663;SDS011;6396;58.490;15.528;2023-04-24T01:39:02;29.70;;;21.93;;
12663;SDS011;6396;58.490;15.528;2023-04-24T01:41:35;29.90;;;21.30;;
12663;SDS011;6396;58.490;15.528;2023-04-24T01:44:02;32.07;;;22.60;;
12663;SDS011;6396;58.490;15.528;2023-04-24T01:46:35;29.37;;;22.27;;
12663;SDS011;6396;58.490;15.528;2023-04-24T01:49:02;28.83;;;20.90;;
12663;SDS011;6396;58.490;15.528;2023-04-24T01:51:29;31.90;;;21.77;;
12663;SDS011;6396;58.490;15.528;2023-04-24T01:53:56;33.23;;;23.67;;
12663;SDS011;6396;58.490;15.528;2023-04-24T01:56:27;30.83;;;22.50;;
12663;SDS011;6396;58.490;15.528;2023-04-24T01:58:55;30.97;;;21.50;;
12663;SDS011;6396;58.490;15.528;2023-04-24T02:01:41;35.83;;;22.77;;
12663;SDS011;6396;58.490;15.528;2023-04-24T02:04:08;30.50;;;22.03;;
12663;SDS011;6396;58.490;15.528;2023-04-24T02:06:43;30.10;;;20.97;;
12663;SDS011;6396;58.490;15.528;2023-04-24T02:09:10;31.73;;;22.30;;
12663;SDS011;6396;58.490;15.528;2023-04-24T02:11:39;26.87;;;20.13;;
12663;SDS011;6396;58.490;15.528;2023-04-24T02:14:06;29.57;;;20.90;;
12663;SDS011;6396;58.490;15.528;2023-04-24T02:16:41;28.40;;;20.70;;
12663;SDS011;6396;58.490;15.528;2023-04-24T02:19:08;31.13;;;22.10;;
12663;SDS011;6396;58.490;15.528;2023-04-24T02:21:41;32.33;;;22.37;;
12663;SDS011;6396;58.490;15.528;2023-04-24T02:24:08;28.80;;;20.83;;
12663;SDS011;6396;58.490;15.528;2023-04-24T02:26:35;27.37;;;20.03;;
12663;SDS011;6396;58.490;15.528;2023-04-24T02:29:03;29.07;;;21.37;;
12663;SDS011;6396;58.490;15.528;2023-04-24T02:31:39;29.17;;;21.10;;
12663;SDS011;6396;58.490;15.528;2023-04-24T02:34:06;27.93;;;20.60;;
12663;SDS011;6396;58.490;15.528;2023-04-24T02:36:45;28.13;;;21.37;;
12663;SDS011;6396;58.490;15.528;2023-04-24T02:39:12;28.37;;;21.20;;
12663;SDS011;6396;58.490;15.528;2023-04-24T02:41:42;27.87;;;21.03;;
12663;SDS011;6396;58.490;15.528;2023-04-24T02:44:10;27.57;;;22.03;;
12663;SDS011;6396;58.490;15.528;2023-04-24T02:49:36;28.20;;;21.60;;
12663;SDS011;6396;58.490;15.528;2023-04-24T02:52:05;26.80;;;21.60;;
12663;SDS011;6396;58.490;15.528;2023-04-24T02:54:32;29.97;;;21.40;;
12663;SDS011;6396;58.490;15.528;2023-04-24T02:56:58;31.83;;;22.37;;
12663;SDS011;6396;58.490;15.528;2023-04-24T02:59:27;31.63;;;22.30;;
12663;SDS011;6396;58.490;15.528;2023-04-24T03:01:54;31.47;;;22.43;;
12663;SDS011;6396;58.490;15.528;2023-04-24T03:04:21;31.70;;;22.27;;
12663;SDS011;6396;58.490;15.528;2023-04-24T03:06:57;33.87;;;23.87;;
12663;SDS011;6396;58.490;15.528;2023-04-24T03:09:24;31.50;;;23.07;;
12663;SDS011;6396;58.490;15.528;2023-04-24T03:11:51;33.47;;;21.20;;
12663;SDS011;6396;58.490;15.528;2023-04-24T03:14:18;30.40;;;21.17;;
12663;SDS011;6396;58.490;15.528;2023-04-24T03:16:46;28.17;;;20.13;;
12663;SDS011;6396;58.490;15.528;2023-04-24T03:19:13;26.63;;;20.23;;
12663;SDS011;6396;58.490;15.528;2023-04-24T03:21:40;28.23;;;20.07;;
12663;SDS011;6396;58.490;15.528;2023-04-24T03:24:07;37.77;;;20.33;;
12663;SDS011;6396;58.490;15.528;2023-04-24T03:26:37;37.57;;;20.23;;
12663;SDS011;6396;58.490;15.528;2023-04-24T03:29:03;27.43;;;19.53;;
12663;SDS011;6396;58.490;15.528;2023-04-24T03:31:36;25.93;;;19.60;;
12663;SDS011;6396;58.490;15.528;2023-04-24T03:34:05;27.37;;;19.60;;
12663;SDS011;6396;58.490;15.528;2023-04-24T03:36:32;33.07;;;21.10;;
12663;SDS011;6396;58.490;15.528;2023-04-24T03:38:59;52.30;;;21.83;;
12663;SDS011;6396;58.490;15.528;2023-04-24T03:41:26;33.63;;;21.10;;
12663;SDS011;6396;58.490;15.528;2023-04-24T03:43:52;26.00;;;19.03;;
12663;SDS011;6396;58.490;15.528;2023-04-24T03:46:19;34.23;;;19.67;;
12663;SDS011;6396;58.490;15.528;2023-04-24T03:51:52;66.47;;;22.17;;
12663;SDS011;6396;58.490;15.528;2023-04-24T03:54:19;44.70;;;20.50;;
12663;SDS011;6396;58.490;15.528;2023-04-24T03:56:46;54.97;;;21.67;;
12663;SDS011;6396;58.490;15.528;2023-04-24T03:59:13;23.27;;;18.60;;
12663;SDS011;6396;58.490;15.528;2023-04-24T04:01:50;38.67;;;21.93;;
12663;SDS011;6396;58.490;15.528;2023-04-24T04:04:18;32.70;;;21.30;;
12663;SDS011;6396;58.490;15.528;2023-04-24T04:06:46;49.20;;;22.73;;
12663;SDS011;6396;58.490;15.528;2023-04-24T04:09:13;97.00;;;25.23;;
12663;SDS011;6396;58.490;15.528;2023-04-24T04:11:42;32.03;;;21.60;;
12663;SDS011;6396;58.490;15.528;2023-04-24T04:14:09;36.00;;;21.27;;
12663;SDS011;6396;58.490;15.528;2023-04-24T04:16:35;41.40;;;21.13;;
12663;SDS011;6396;58.490;15.528;2023-04-24T04:19:04;41.70;;;21.30;;
12663;SDS011;6396;58.490;15.528;2023-04-24T04:21:32;50.00;;;20.30;;
12663;SDS011;6396;58.490;15.528;2023-04-24T04:24:02;44.07;;;20.40;;
12663;SDS011;6396;58.490;15.528;2023-04-24T04:26:30;34.37;;;20.87;;
12663;SDS011;6396;58.490;15.528;2023-04-24T04:28:58;52.80;;;20.97;;
12663;SDS011;6396;58.490;15.528;2023-04-24T04:31:27;37.57;;;22.07;;
12663;SDS011;6396;58.490;15.528;2023-04-24T04:33:56;28.27;;;20.27;;
12663;SDS011;6396;58.490;15.528;2023-04-24T04:36:23;33.40;;;20.53;;
12663;SDS011;6396;58.490;15.528;2023-04-24T04:38:53;51.07;;;23.43;;
12663;SDS011;6396;58.490;15.528;2023-04-24T04:41:19;41.47;;;21.40;;
12663;SDS011;6396;58.490;15.528;2023-04-24T04:43:53;64.93;;;23.17;;
12663;SDS011;6396;58.490;15.528;2023-04-24T04:46:23;27.17;;;20.17;;
12663;SDS011;6396;58.490;15.528;2023-04-24T04:48:55;41.97;;;22.13;;
12663;SDS011;6396;58.490;15.528;2023-04-24T04:51:22;43.13;;;21.27;;
12663;SDS011;6396;58.490;15.528;2023-04-24T04:53:49;51.63;;;21.57;;
12663;SDS011;6396;58.490;15.528;2023-04-24T04:56:17;32.30;;;20.73;;
12663;SDS011;6396;58.490;15.528;2023-04-24T04:58:45;34.13;;;20.60;;
12663;SDS011;6396;58.490;15.528;2023-04-24T05:01:11;45.60;;;22.73;;
12663;SDS011;6396;58.490;15.528;2023-04-24T05:06:27;29.03;;;20.17;;
12663;SDS011;6396;58.490;15.528;2023-04-24T05:08:53;53.37;;;21.47;;
12663;SDS011;6396;58.490;15.528;2023-04-24T05:11:23;53.40;;;21.40;;
12663;SDS011;6396;58.490;15.528;2023-04-24T05:13:52;47.33;;;20.30;;
12663;SDS011;6396;58.490;15.528;2023-04-24T05:16:19;61.00;;;21.53;;
12663;SDS011;6396;58.490;15.528;2023-04-24T05:18:46;26.30;;;20.30;;
12663;SDS011;6396;58.490;15.528;2023-04-24T05:21:13;27.00;;;20.50;;
12663;SDS011;6396;58.490;15.528;2023-04-24T05:23:42;27.17;;;20.20;;
12663;SDS011;6396;58.490;15.528;2023-04-24T05:26:08;26.87;;;19.53;;
12663;SDS011;6396;58.490;15.528;2023-04-24T05:28:45;28.50;;;21.57;;
12663;SDS011;6396;58.490;15.528;2023-04-24T05:31:12;38.27;;;21.83;;
12663;SDS011;6396;58.490;15.528;2023-04-24T05:33:40;26.87;;;20.23;;
12663;SDS011;6396;58.490;15.528;2023-04-24T05:36:07;31.53;;;20.33;;
12663;SDS011;6396;58.490;15.528;2023-04-24T05:38:36;26.43;;;20.27;;
12663;SDS011;6396;58.490;15.528;2023-04-24T05:41:03;60.03;;;21.37;;
12663;SDS011;6396;58.490;15.528;2023-04-24T05:43:30;126.87;;;25.27;;
12663;SDS011;6396;58.490;15.528;2023-04-24T05:45:58;27.17;;;19.17;;
12663;SDS011;6396;58.490;15.528;2023-04-24T05:48:25;39.27;;;20.63;;
12663;SDS011;6396;58.490;15.528;2023-04-24T05:50:52;56.67;;;20.80;;
12663;SDS011;6396;58.490;15.528;2023-04-24T05:53:19;28.63;;;21.00;;
12663;SDS011;6396;58.490;15.528;2023-04-24T05:55:46;27.60;;;20.50;;
12663;SDS011;6396;58.490;15.528;2023-04-24T05:58:13;37.93;;;23.80;;
12663;SDS011;6396;58.490;15.528;2023-04-24T06:00:40;51.50;;;23.83;;
12663;SDS011;6396;58.490;15.528;2023-04-24T06:03:10;59.23;;;25.77;;
12663;SDS011;6396;58.490;15.528;2023-04-24T06:05:37;40.97;;;21.90;;
12663;SDS011;6396;58.490;15.528;2023-04-24T06:08:04;32.83;;;23.77;;
12663;SDS011;6396;58.490;15.528;2023-04-24T06:10:31;50.13;;;27.57;;
12663;SDS011;6396;58.490;15.528;2023-04-24T06:12:58;42.80;;;25.03;;
12663;SDS011;6396;58.490;15.528;2023-04-24T06:15:27;41.23;;;26.27;;
12663;SDS011;6396;58.490;15.528;2023-04-24T06:17:55;45.33;;;26.17;;
12663;SDS011;6396;58.490;15.528;2023-04-24T06:20:23;36.30;;;25.53;;
12663;SDS011;6396;58.490;15.528;2023-04-24T06:22:52;39.60;;;25.97;;
12663;SDS011;6396;58.490;15.528;2023-04-24T06:25:19;41.70;;;27.57;;
12663;SDS011;6396;58.490;15.528;2023-04-24T06:27:46;44.00;;;27.00;;
12663;SDS011;6396;58.490;15.528;2023-04-24T06:30:15;38.60;;;26.07;;
12663;SDS011;6396;58.490;15.528;2023-04-24T06:32:42;35.70;;;25.70;;
12663;SDS011;6396;58.490;15.528;2023-04-24T06:35:08;35.07;;;24.67;;
12663;SDS011;6396;58.490;15.528;2023-04-24T06:37:41;32.27;;;24.23;;
12663;SDS011;6396;58.490;15.528;2023-04-24T06:40:09;37.47;;;25.57;;
12663;SDS011;6396;58.490;15.528;2023-04-24T06:42:37;37.90;;;25.87;;
12663;SDS011;6396;58.490;15.528;2023-04-24T06:45:04;35.03;;;25.67;;
12663;SDS011;6396;58.490;15.528;2023-04-24T06:47:33;37.47;;;27.40;;
12663;SDS011;6396;58.490;15.528;2023-04-24T06:50:00;37.27;;;26.10;;
12663;SDS011;6396;58.490;15.528;2023-04-24T06:52:33;36.40;;;26.40;;
12663;SDS011;6396;58.490;15.528;2023-04-24T06:55:02;37.50;;;27.00;;
12663;SDS011;6396;58.490;15.528;2023-04-24T06:57:31;40.73;;;27.07;;
12663;SDS011;6396;58.490;15.528;2023-04-24T06:59:58;39.27;;;27.80;;
12663;SDS011;6396;58.490;15.528;2023-04-24T07:02:25;40.50;;;27.70;;
12663;SDS011;6396;58.490;15.528;2023-04-24T07:04:52;40.70;;;27.27;;
12663;SDS011;6396;58.490;15.528;2023-04-24T07:07:19;38.27;;;27.53;;
12663;SDS011;6396;58.490;15.528;2023-04-24T07:09:46;37.27;;;27.20;;
12663;SDS011;6396;58.490;15.528;2023-04-24T07:12:15;40.90;;;27.47;;
12663;SDS011;6396;58.490;15.528;2023-04-24T07:14:42;38.77;;;28.30;;
12663;SDS011;6396;58.490;15.528;2023-04-24T07:17:08;36.40;;;26.40;;
12663;SDS011;6396;58.490;15.528;2023-04-24T07:22:07;38.30;;;27.00;;
12663;SDS011;6396;58.490;15.528;2023-04-24T07:24:42;35.83;;;27.40;;
12663;SDS011;6396;58.490;15.528;2023-04-24T07:27:09;41.30;;;29.27;;
12663;SDS011;6396;58.490;15.528;2023-04-24T07:29:44;38.57;;;27.73;;
12663;SDS011;6396;58.490;15.528;2023-04-24T07:32:13;38.27;;;27.70;;
12663;SDS011;6396;58.490;15.528;2023-04-24T07:34:41;40.77;;;29.17;;
12663;SDS011;6396;58.490;15.528;2023-04-24T07:37:08;43.83;;;29.43;;
12663;SDS011;6396;58.490;15.528;2023-04-24T07:39:37;40.83;;;29.47;;
12663;SDS011;6396;58.490;15.528;2023-04-24T07:42:04;41.30;;;29.73;;
12663;SDS011;6396;58.490;15.528;2023-04-24T07:44:32;39.67;;;29.13;;
12663;SDS011;6396;58.490;15.528;2023-04-24T07:47:00;41.10;;;28.93;;
12663;SDS011;6396;58.490;15.528;2023-04-24T07:49:27;38.67;;;27.63;;
12663;SDS011;6396;58.490;15.528;2023-04-24T07:51:54;38.77;;;27.57;;
12663;SDS011;6396;58.490;15.528;2023-04-24T07:54:21;36.43;;;26.97;;
12663;SDS011;6396;58.490;15.528;2023-04-24T07:56:48;39.47;;;27.90;;
12663;SDS011;6396;58.490;15.528;2023-04-24T08:02:03;39.03;;;27.33;;
12663;SDS011;6396;58.490;15.528;2023-04-24T08:04:46;42.93;;;29.47;;
12663;SDS011;6396;58.490;15.528;2023-04-24T08:07:13;42.20;;;28.83;;
12663;SDS011;6396;58.490;15.528;2023-04-24T08:09:40;37.03;;;28.53;;
12663;SDS011;6396;58.490;15.528;2023-04-24T08:12:07;41.37;;;27.20;;
12663;SDS011;6396;58.490;15.528;2023-04-24T08:14:33;36.70;;;26.10;;
12663;SDS011;6396;58.490;15.528;2023-04-24T08:17:00;39.57;;;26.57;;
12663;SDS011;6396;58.490;15.528;2023-04-24T08:19:37;39.33;;;27.43;;
12663;SDS011;6396;58.490;15.528;2023-04-24T08:22:08;40.77;;;27.30;;
12663;SDS011;6396;58.490;15.528;2023-04-24T08:24:35;38.37;;;27.43;;
12663;SDS011;6396;58.490;15.528;2023-04-24T08:27:01;39.37;;;28.30;;
12663;SDS011;6396;58.490;15.528;2023-04-24T08:32:04;40.80;;;25.93;;
12663;SDS011;6396;58.490;15.528;2023-04-24T08:34:33;38.30;;;26.57;;
12663;SDS011;6396;58.490;15.528;2023-04-24T08:37:01;38.37;;;26.27;;
12663;SDS011;6396;58.490;15.528;2023-04-24T08:39:29;36.67;;;26.47;;
12663;SDS011;6396;58.490;15.528;2023-04-24T08:41:55;36.87;;;26.50;;
12663;SDS011;6396;58.490;15.528;2023-04-24T08:44:23;35.10;;;26.07;;
12663;SDS011;6396;58.490;15.528;2023-04-24T08:46:50;37.10;;;26.47;;
12663;SDS011;6396;58.490;15.528;2023-04-24T08:49:19;34.87;;;25.13;;
12663;SDS011;6396;58.490;15.528;2023-04-24T08:51:46;32.30;;;24.33;;
12663;SDS011;6396;58.490;15.528;2023-04-24T08:54:16;32.00;;;24.63;;
12663;SDS011;6396;58.490;15.528;2023-04-24T08:56:44;34.27;;;24.90;;
12663;SDS011;6396;58.490;15.528;2023-04-24T08:59:13;32.87;;;23.97;;
12663;SDS011;6396;58.490;15.528;2023-04-24T09:01:41;34.07;;;24.87;;
12663;SDS011;6396;58.490;15.528;2023-04-24T09:04:11;32.90;;;24.80;;
12663;SDS011;6396;58.490;15.528;2023-04-24T09:06:41;34.60;;;23.43;;
12663;SDS011;6396;58.490;15.528;2023-04-24T09:09:08;34.13;;;25.00;;
12663;SDS011;6396;58.490;15.528;2023-04-24T09:11:39;30.77;;;23.30;;
12663;SDS011;6396;58.490;15.528;2023-04-24T09:14:21;33.73;;;24.33;;
12663;SDS011;6396;58.490;15.528;2023-04-24T09:16:48;30.70;;;23.27;;
12663;SDS011;6396;58.490;15.528;2023-04-24T09:19:30;34.87;;;25.27;;
12663;SDS011;6396;58.490;15.528;2023-04-24T09:21:56;35.33;;;25.57;;
12663;SDS011;6396;58.490;15.528;2023-04-24T09:24:30;36.47;;;26.63;;
12663;SDS011;6396;58.490;15.528;2023-04-24T09:26:58;35.67;;;26.00;;
12663;SDS011;6396;58.490;15.528;2023-04-24T09:29:26;34.80;;;26.57;;
12663;SDS011;6396;58.490;15.528;2023-04-24T09:31:53;33.50;;;24.83;;
12663;SDS011;6396;58.490;15.528;2023-04-24T09:34:27;33.50;;;24.33;;
12663;SDS011;6396;58.490;15.528;2023-04-24T09:36:53;33.00;;;24.73;;
12663;SDS011;6396;58.490;15.528;2023-04-24T09:39:26;31.07;;;23.67;;
12663;SDS011;6396;58.490;15.528;2023-04-24T09:41:56;30.43;;;23.70;;
12663;SDS011;6396;58.490;15.528;2023-04-24T09:44:30;30.97;;;23.40;;
12663;SDS011;6396;58.490;15.528;2023-04-24T09:47:01;34.90;;;24.77;;
12663;SDS011;6396;58.490;15.528;2023-04-24T09:49:30;30.57;;;23.13;;
12663;SDS011;6396;58.490;15.528;2023-04-24T09:52:02;28.17;;;22.87;;
12663;SDS011;6396;58.490;15.528;2023-04-24T09:54:29;29.30;;;22.77;;
12663;SDS011;6396;58.490;15.528;2023-04-24T09:56:56;30.33;;;22.43;;
12663;SDS011;6396;58.490;15.528;2023-04-24T09:59:33;28.03;;;21.87;;
12663;SDS011;6396;58.490;15.528;2023-04-24T10:02:00;30.80;;;21.60;;
12663;SDS011;6396;58.490;15.528;2023-04-24T10:04:30;32.13;;;23.53;;
12663;SDS011;6396;58.490;15.528;2023-04-24T10:06:57;32.10;;;23.17;;
12663;SDS011;6396;58.490;15.528;2023-04-24T10:09:27;26.97;;;20.93;;
12663;SDS011;6396;58.490;15.528;2023-04-24T10:11:54;27.87;;;21.57;;
12663;SDS011;6396;58.490;15.528;2023-04-24T10:14:24;28.90;;;21.80;;
12663;SDS011;6396;58.490;15.528;2023-04-24T10:16:54;28.03;;;21.83;;
12663;SDS011;6396;58.490;15.528;2023-04-24T10:19:21;29.93;;;22.60;;
12663;SDS011;6396;58.490;15.528;2023-04-24T10:21:52;29.20;;;23.93;;
12663;SDS011;6396;58.490;15.528;2023-04-24T10:24:23;31.33;;;23.77;;
12663;SDS011;6396;58.490;15.528;2023-04-24T10:26:50;31.17;;;24.50;;
12663;SDS011;6396;58.490;15.528;2023-04-24T10:29:17;30.30;;;23.90;;
12663;SDS011;6396;58.490;15.528;2023-04-24T10:31:46;30.53;;;24.23;;
12663;SDS011;6396;58.490;15.528;2023-04-24T10:34:15;30.23;;;23.40;;
12663;SDS011;6396;58.490;15.528;2023-04-24T10:36:46;28.40;;;22.50;;
12663;SDS011;6396;58.490;15.528;2023-04-24T10:39:18;28.83;;;22.73;;
12663;SDS011;6396;58.490;15.528;2023-04-24T10:41:48;29.80;;;22.97;;
12663;SDS011;6396;58.490;15.528;2023-04-24T10:44:15;29.63;;;22.87;;
12663;SDS011;6396;58.490;15.528;2023-04-24T10:46:42;29.60;;;23.87;;
12663;SDS011;6396;58.490;15.528;2023-04-24T10:49:18;29.33;;;22.93;;
12663;SDS011;6396;58.490;15.528;2023-04-24T10:51:54;29.90;;;22.07;;
12663;SDS011;6396;58.490;15.528;2023-04-24T10:54:28;29.50;;;22.70;;
12663;SDS011;6396;58.490;15.528;2023-04-24T11:02:52;28.70;;;23.63;;
12663;SDS011;6396;58.490;15.528;2023-04-24T11:05:24;31.43;;;24.27;;
12663;SDS011;6396;58.490;15.528;2023-04-24T11:08:21;30.47;;;21.50;;
12663;SDS011;6396;58.490;15.528;2023-04-24T11:11:00;25.50;;;21.17;;
12663;SDS011;6396;58.490;15.528;2023-04-24T11:16:29;27.67;;;21.23;;
12663;SDS011;6396;58.490;15.528;2023-04-24T11:19:05;27.93;;;21.30;;
12663;SDS011;6396;58.490;15.528;2023-04-24T11:21:40;25.53;;;20.80;;
12663;SDS011;6396;58.490;15.528;2023-04-24T11:24:30;27.87;;;21.10;;
12663;SDS011;6396;58.490;15.528;2023-04-24T11:26:59;27.00;;;20.63;;
12663;SDS011;6396;58.490;15.528;2023-04-24T11:29:40;28.57;;;22.13;;
12663;SDS011;6396;58.490;15.528;2023-04-24T11:32:15;26.27;;;20.63;;
12663;SDS011;6396;58.490;15.528;2023-04-24T11:34:45;29.70;;;21.43;;
12663;SDS011;6396;58.490;15.528;2023-04-24T11:37:15;26.93;;;20.53;;
12663;SDS011;6396;58.490;15.528;2023-04-24T11:39:50;25.90;;;21.17;;
12663;SDS011;6396;58.490;15.528;2023-04-24T11:42:17;28.50;;;20.87;;
12663;SDS011;6396;58.490;15.528;2023-04-24T11:44:56;26.30;;;20.23;;
12663;SDS011;6396;58.490;15.528;2023-04-24T11:47:29;28.87;;;21.27;;
12663;SDS011;6396;58.490;15.528;2023-04-24T11:49:59;25.13;;;20.20;;
12663;SDS011;6396;58.490;15.528;2023-04-24T11:52:28;25.83;;;21.40;;
12663;SDS011;6396;58.490;15.528;2023-04-24T11:54:56;27.50;;;19.17;;
12663;SDS011;6396;58.490;15.528;2023-04-24T11:57:23;26.47;;;20.33;;
12663;SDS011;6396;58.490;15.528;2023-04-24T11:59:55;24.50;;;18.63;;
12663;SDS011;6396;58.490;15.528;2023-04-24T12:02:22;23.73;;;19.00;;
12663;SDS011;6396;58.490;15.528;2023-04-24T12:04:52;22.77;;;18.53;;
12663;SDS011;6396;58.490;15.528;2023-04-24T12:07:19;22.70;;;18.40;;
12663;SDS011;6396;58.490;15.528;2023-04-24T12:09:48;23.03;;;18.67;;
12663;SDS011;6396;58.490;15.528;2023-04-24T12:12:16;25.37;;;20.13;;
12663;SDS011;6396;58.490;15.528;2023-04-24T12:14:52;26.00;;;18.73;;
12663;SDS011;6396;58.490;15.528;2023-04-24T12:17:23;23.10;;;17.27;;
12663;SDS011;6396;58.490;15.528;2023-04-24T12:19:57;19.70;;;16.43;;
12663;SDS011;6396;58.490;15.528;2023-04-24T12:22:25;22.30;;;17.17;;
12663;SDS011;6396;58.490;15.528;2023-04-24T12:25:01;21.17;;;17.70;;
12663;SDS011;6396;58.490;15.528;2023-04-24T12:27:31;19.83;;;17.53;;
12663;SDS011;6396;58.490;15.528;2023-04-24T12:29:59;19.60;;;16.03;;
12663;SDS011;6396;58.490;15.528;2023-04-24T12:32:27;20.93;;;16.67;;
12663;SDS011;6396;58.490;15.528;2023-04-24T12:34:55;18.80;;;15.40;;
12663;SDS011;6396;58.490;15.528;2023-04-24T12:37:23;22.43;;;16.73;;
12663;SDS011;6396;58.490;15.528;2023-04-24T12:42:46;19.57;;;15.67;;
12663;SDS011;6396;58.490;15.528;2023-04-24T12:45:17;18.80;;;15.30;;
12663;SDS011;6396;58.490;15.528;2023-04-24T12:47:45;21.47;;;16.50;;
12663;SDS011;6396;58.490;15.528;2023-04-24T12:50:15;18.03;;;14.80;;
12663;SDS011;6396;58.490;15.528;2023-04-24T12:52:42;18.33;;;15.00;;
12663;SDS011;6396;58.490;15.528;2023-04-24T12:55:13;18.03;;;13.93;;
12663;SDS011;6396;58.490;15.528;2023-04-24T12:57:40;16.87;;;14.30;;
12663;SDS011;6396;58.490;15.528;2023-04-24T13:02:44;15.03;;;13.40;;
12663;SDS011;6396;58.490;15.528;2023-04-24T13:05:14;17.63;;;14.23;;
12663;SDS011;6396;58.490;15.528;2023-04-24T13:07:42;16.07;;;13.60;;
12663;SDS011;6396;58.490;15.528;2023-04-24T13:10:10;14.40;;;12.80;;
12663;SDS011;6396;58.490;15.528;2023-04-24T13:12:38;14.97;;;11.63;;
12663;SDS011;6396;58.490;15.528;2023-04-24T13:15:11;13.87;;;11.37;;
12663;SDS011;6396;58.490;15.528;2023-04-24T13:17:40;13.70;;;12.30;;
12663;SDS011;6396;58.490;15.528;2023-04-24T13:20:07;15.40;;;12.13;;
12663;SDS011;6396;58.490;15.528;2023-04-24T13:22:35;13.67;;;11.43;;
12663;SDS011;6396;58.490;15.528;2023-04-24T13:25:02;12.97;;;11.63;;
12663;SDS011;6396;58.490;15.528;2023-04-24T13:27:31;16.70;;;12.80;;
12663;SDS011;6396;58.490;15.528;2023-04-24T13:30:00;16.77;;;12.60;;
12663;SDS011;6396;58.490;15.528;2023-04-24T13:32:26;13.47;;;11.43;;
12663;SDS011;6396;58.490;15.528;2023-04-24T13:34:55;14.70;;;12.73;;
12663;SDS011;6396;58.490;15.528;2023-04-24T13:37:22;13.27;;;11.63;;
12663;SDS011;6396;58.490;15.528;2023-04-24T13:39:51;15.60;;;12.67;;
12663;SDS011;6396;58.490;15.528;2023-04-24T13:42:18;14.00;;;12.50;;
12663;SDS011;6396;58.490;15.528;2023-04-24T13:44:52;15.97;;;14.03;;
12663;SDS011;6396;58.490;15.528;2023-04-24T13:47:19;18.17;;;15.60;;
12663;SDS011;6396;58.490;15.528;2023-04-24T13:49:46;19.90;;;15.03;;
12663;SDS011;6396;58.490;15.528;2023-04-24T13:52:14;20.03;;;16.27;;
12663;SDS011;6396;58.490;15.528;2023-04-24T13:54:41;19.67;;;16.50;;
12663;SDS011;6396;58.490;15.528;2023-04-24T13:57:11;20.90;;;16.40;;
12663;SDS011;6396;58.490;15.528;2023-04-24T13:59:38;20.00;;;16.60;;
12663;SDS011;6396;58.490;15.528;2023-04-24T14:02:05;20.83;;;16.30;;
12663;SDS011;6396;58.490;15.528;2023-04-24T14:04:34;21.83;;;17.13;;
12663;SDS011;6396;58.490;15.528;2023-04-24T14:07:00;19.23;;;16.33;;
12663;SDS011;6396;58.490;15.528;2023-04-24T14:09:33;19.63;;;15.83;;
12663;SDS011;6396;58.490;15.528;2023-04-24T14:12:00;19.03;;;15.53;;
12663;SDS011;6396;58.490;15.528;2023-04-24T14:14:28;19.83;;;15.73;;
12663;SDS011;6396;58.490;15.528;2023-04-24T14:16:56;19.47;;;15.73;;
12663;SDS011;6396;58.490;15.528;2023-04-24T14:19:24;18.63;;;15.70;;
12663;SDS011;6396;58.490;15.528;2023-04-24T14:21:51;19.50;;;16.40;;
12663;SDS011;6396;58.490;15.528;2023-04-24T14:24:18;19.87;;;16.30;;
12663;SDS011;6396;58.490;15.528;2023-04-24T14:26:47;22.60;;;16.43;;
12663;SDS011;6396;58.490;15.528;2023-04-24T14:29:15;18.80;;;15.13;;
12663;SDS011;6396;58.490;15.528;2023-04-24T14:31:42;18.37;;;14.33;;
12663;SDS011;6396;58.490;15.528;2023-04-24T14:34:09;17.00;;;13.60;;
12663;SDS011;6396;58.490;15.528;2023-04-24T14:36:36;14.70;;;12.20;;
12663;SDS011;6396;58.490;15.528;2023-04-24T14:39:10;15.63;;;12.33;;
12663;SDS011;6396;58.490;15.528;2023-04-24T14:41:37;13.80;;;11.60;;
12663;SDS011;6396;58.490;15.528;2023-04-24T14:44:08;13.13;;;11.43;;
12663;SDS011;6396;58.490;15.528;2023-04-24T14:46:35;13.93;;;11.27;;
12663;SDS011;6396;58.490;15.528;2023-04-24T14:49:03;14.43;;;12.00;;
12663;SDS011;6396;58.490;15.528;2023-04-24T14:51:30;13.30;;;10.83;;
12663;SDS011;6396;58.490;15.528;2023-04-24T14:53:58;13.53;;;11.37;;
12663;SDS011;6396;58.490;15.528;2023-04-24T14:56:25;16.17;;;11.70;;
12663;SDS011;6396;58.490;15.528;2023-04-24T14:58:51;15.93;;;11.43;;
12663;SDS011;6396;58.490;15.528;2023-04-24T15:01:20;12.67;;;11.20;;
12663;SDS011;6396;58.490;15.528;2023-04-24T15:03:50;15.30;;;12.67;;
12663;SDS011;6396;58.490;15.528;2023-04-24T15:06:17;16.10;;;13.37;;
12663;SDS011;6396;58.490;15.528;2023-04-24T15:08:45;16.90;;;13.20;;
12663;SDS011;6396;58.490;15.528;2023-04-24T15:11:11;21.80;;;16.37;;
12663;SDS011;6396;58.490;15.528;2023-04-24T15:13:38;26.60;;;18.57;;
12663;SDS011;6396;58.490;15.528;2023-04-24T15:16:05;24.13;;;18.23;;